AirNav   Everest Fuels
 
 370 users online  

5KY6 Jake's Field Airport
Smithfield, Kentucky, USA

GOING TO SMITHFIELD?


FAA INFORMATION EFFECTIVE 28 FEBRUARY 2019

Location

FAA Identifier: 5KY6
Lat/Long: 38-25-14.0000N / 085-15-28.0000W
38-25.233333N / 085-15.466667W
38.4205556 / -85.2577778
(estimated)
Elevation: 903 ft. / 275 m (estimated)
From city: 2 miles S of SMITHFIELD, KY
Time zone: UTC -5 (UTC -4 during Daylight Saving Time)
Zip code: 40050

Airport Operations

Airport use: Private use. Permission required prior to landing
Activation date: 03/2006
Control tower: no
ARTCC: INDIANAPOLIS CENTER
FSS: LOUISVILLE FLIGHT SERVICE STATION
Attendance: IREG
Wind indicator: yes
Segmented circle: no

Nearby radio navigation aids

VOR radial/distance  VOR name  Freq  Var
FFTr314/(21.8)FRANKFORT VOR109.4003W
BQMr063/22.3BOWMAN VOR/DME112.2004W
IIUr037/24.3LOUISVILLE VORTAC114.8001E

Airport Services

Runway Information

Runway 3/21

Dimensions: 1600 x 50 ft. / 488 x 15 m
Surface: turf, in good condition
Operational restrictions: THLDS MARKED WITH CEMENT SQUARES PAINTED WHITE.
RUNWAY 3  RUNWAY 21
Traffic pattern: leftleft

Airport Ownership and Management from official FAA records

Ownership: Privately-owned
Owner: JOY & KEVIN MCGREEVY
1983 HIEATT LANE
SMITHFIELD, KY 40068
Phone 502-845-1683
Manager: JOY & KEVIN MCGREEVY
1983 HIEATT LANE
SMITHFIELD, KY 40068
Phone 502-845-1683

Airport Operational Statistics

Aircraft based on the field: 1
Single engine airplanes: 1
    

Instrument Procedures

There are no published instrument procedures at 5KY6.

Some nearby airports with instrument procedures:

KFFT - Capital City Airport (22 nm SE)
KLOU - Bowman Field Airport (22 nm SW)
KIMS - Madison Municipal Airport (23 nm NW)
KJVY - Clark Regional Airport (23 nm W)
KSDF - Louisville International Airport-Standiford Field (27 nm SW)
 
Loc | Ops | Rwys | IFR | FBO | Links
Com | Nav | Svcs | Stats | Notes
Aerial photo
No photo
 
Sectional chart

 
Airport distance calculator
Flying to Jake's Field Airport? Find the distance to fly.

From to 5KY6

Sunrise and sunset
Times for 20-Mar-2019
 Local
(UTC-4)
 Zulu
(UTC)
Morning civil twilight07:1911:19
Sunrise07:4611:46
Sunset19:5223:52
Evening civil twilight20:1800:18

Current date and time
Zulu (UTC)  20-Mar-2019 06:32:01
Local (UTC-4)  20-Mar-2019 02:32:01
 
METAR
KFFT 
22nm SE 
200553Z AUTO 00000KT 10SM CLR 01/M03 A3029 RMK AO2 SLP259 T00111028 10089 20011 58011
KIMS 
23nm NW 
200615Z AUTO 00000KT 10SM CLR 02/M01 A3031 RMK AO1
KLOU 
23nm SW 
200553Z AUTO 00000KT 10SM CLR 04/M04 A3030 RMK AO2 SLP261 T00441044 10094 20039 58010 $
KJVY 
23nm W 
200615Z AUTO 00000KT 10SM CLR 03/01 A3030 RMK AO2 T00280008
KSDF 
27nm SW 
200556Z 00000KT 10SM BKN250 07/M06 A3030 RMK AO2 SLP260 T00721056 10100 20072 58010
KBRY 
38nm S 
200615Z AUTO 00000KT 10SM CLR 01/M01 A3029 RMK AO1
KLEX 
39nm SE 
200554Z 00000KT 10SM CLR 03/M04 A3029 RMK AO2 SLP260 T00281044 10089 20028 58012
TAF
KSDF 
27nm SW 
200539Z 2006/2112 13003KT P6SM BKN250 FM201700 20012KT P6SM BKN080 FM210100 24008KT P6SM -RA OVC040 FM210300 24006KT P6SM -RA OVC015 FM210500 24006KT 4SM -RA OVC008 FM211000 27005KT 6SM -RA OVC009
NOTAMs
Click for the latest NOTAMs
NOTAMs are issued by the DoD/FAA and will open in a separate window not controlled by AirNav.

 

 
 

Would you like to see your business listed on this page?

 If your business provides an interesting product or service to pilots, flight crews, aircraft, or users of the Jake's Field Airport, you should consider listing it here.  To start the listing process, click on the button below
 
Add a business
 

Other Pages about Jake's Field Airport

Update a link
 
Copyright © AirNav, LLC. All rights reserved. Privacy Policy  Contact